Time;durP1;ratioP1;P1;durP2;ratioP2;P2;SDS_P1;SDS_P2;PMS_P1;PMS_P2;Temp;Humidity;BMP_temperature;BMP_pressure;BME280_temperature;BME280_humidity;BME280_pressure;Samples;Min_cycle;Max_cycle;Signal;HPM_P1;HPM_P2
2021/07/15 00:11:46;;;;;;;7.60;6.63;;;20.50;89.30;;;;;;5545478;22;20045;-96
2021/07/15 00:14:12;;;;;;;7.18;6.47;;;20.40;89.10;;;;;;5026216;28;20285;-96
2021/07/15 00:16:38;;;;;;;6.88;6.18;;;20.40;89.30;;;;;;5014071;28;20542;-94
2021/07/15 00:19:11;;;;;;;6.60;5.90;;;20.40;89.20;;;;;;5018560;28;20026;-96
2021/07/15 00:21:39;;;;;;;5.55;4.97;;;20.40;89.20;;;;;;5031084;28;20033;-96
2021/07/15 00:24:08;;;;;;;5.65;5.05;;;20.40;89.20;;;;;;5025176;28;20042;-96
2021/07/15 00:26:34;;;;;;;4.97;4.35;;;20.40;89.20;;;;;;5024131;28;20105;-96
2021/07/15 00:29:00;;;;;;;5.85;4.50;;;20.40;89.20;;;;;;5022561;28;20022;-96
2021/07/15 00:31:25;;;;;;;5.75;5.22;;;20.50;89.20;;;;;;5011294;28;20060;-95
2021/07/15 00:33:51;;;;;;;6.60;5.80;;;20.40;89.00;;;;;;5006407;28;20218;-96
2021/07/15 00:36:17;;;;;;;6.53;4.90;;;20.40;89.20;;;;;;5013665;28;20465;-96
2021/07/15 00:38:43;;;;;;;7.40;6.65;;;20.40;89.20;;;;;;5017978;28;20026;-96
2021/07/15 00:41:09;;;;;;;6.90;6.18;;;20.40;89.10;;;;;;5018059;28;20033;-96
2021/07/15 00:43:35;;;;;;;6.72;5.70;;;20.40;89.20;;;;;;5016558;28;20034;-96
2021/07/15 01:53:34;;;;;;;10.15;8.52;;;20.00;89.60;;;;;;6009775;23;21051;-96
2021/07/15 01:56:04;;;;;;;11.32;7.78;;;20.00;89.70;;;;;;5015948;28;20034;-96
2021/07/15 02:55:27;;;;;;;10.80;8.00;;;19.90;90.00;;;;;;5831934;23;20061;-96
2021/07/15 02:58:12;;;;;;;9.35;6.90;;;19.80;90.00;;;;;;4998887;28;20041;-95
2021/07/15 03:00:54;;;;;;;9.60;7.07;;;19.80;90.00;;;;;;4995907;28;20034;-96
2021/07/15 03:36:53;;;;;;;5.70;4.57;;;19.80;90.10;;;;;;5563563;23;20443;-96
2021/07/15 03:39:20;;;;;;;4.65;4.20;;;19.80;89.80;;;;;;5033904;28;20027;-96
2021/07/15 04:10:26;;;;;;;5.07;4.22;;;19.80;89.60;;;;;;5610746;23;20053;-96
2021/07/15 04:12:55;;;;;;;3.72;3.25;;;19.80;89.60;;;;;;5022150;28;20142;-96
2021/07/15 04:15:42;;;;;;;4.70;4.20;;;19.80;89.60;;;;;;5014436;28;20018;-96
2021/07/15 04:28:30;;;;;;;3.15;2.47;;;19.80;89.60;;;;;;5408418;23;20068;-96
2021/07/15 04:31:16;;;;;;;3.25;2.80;;;19.80;89.60;;;;;;5009094;28;20034;-96
2021/07/15 04:33:43;;;;;;;3.25;2.85;;;19.80;89.60;;;;;;5023797;28;20026;-96
2021/07/15 04:36:10;;;;;;;5.45;3.20;;;19.80;89.50;;;;;;5020604;28;20046;-96
2021/07/15 04:38:35;;;;;;;4.22;3.22;;;19.70;89.50;;;;;;5020137;28;20073;-96
2021/07/15 04:41:02;;;;;;;5.15;4.00;;;19.70;89.60;;;;;;5005455;28;20065;-95
2021/07/15 04:43:29;;;;;;;4.18;3.20;;;19.70;89.80;;;;;;5005230;28;20015;-95
2021/07/15 04:45:59;;;;;;;4.03;3.28;;;19.60;89.90;;;;;;5002381;28;20030;-96
2021/07/15 04:48:25;;;;;;;5.93;4.10;;;19.60;89.90;;;;;;5004039;28;20033;-95
2021/07/15 04:50:51;;;;;;;4.22;3.60;;;19.70;90.00;;;;;;5000101;28;20026;-95
2021/07/15 04:53:20;;;;;;;6.65;4.72;;;19.60;90.00;;;;;;4997990;28;20033;-96
2021/07/15 04:55:47;;;;;;;6.03;4.38;;;19.60;90.00;;;;;;4999067;28;20022;-95
2021/07/15 04:58:13;;;;;;;6.15;4.45;;;19.60;90.00;;;;;;5004325;28;20118;-95
2021/07/15 05:00:39;;;;;;;7.00;4.70;;;19.60;90.00;;;;;;5003566;28;20061;-96
2021/07/15 05:03:07;;;;;;;9.57;7.25;;;19.60;90.00;;;;;;5004392;28;20022;-96
2021/07/15 05:05:33;;;;;;;6.97;5.07;;;19.60;90.10;;;;;;5001386;28;20058;-95
2021/07/15 05:07:58;;;;;;;5.65;4.22;;;19.60;90.10;;;;;;5007036;28;20073;-96
2021/07/15 05:10:24;;;;;;;7.13;5.55;;;19.60;90.10;;;;;;5022465;28;20014;-96
2021/07/15 05:12:50;;;;;;;7.18;5.60;;;19.60;90.10;;;;;;4999991;28;20089;-96
2021/07/15 05:15:16;;;;;;;6.93;5.30;;;19.60;90.10;;;;;;4999197;28;20023;-96
2021/07/15 05:17:42;;;;;;;10.35;5.75;;;19.70;90.10;;;;;;5008864;28;20028;-96
2021/07/15 05:25:19;;;;;;;8.85;6.10;;;19.60;90.10;;;;;;4989747;28;20074;-96
2021/07/15 05:27:44;;;;;;;8.77;5.57;;;19.60;90.10;;;;;;4981615;28;20035;-96
2021/07/15 05:30:11;;;;;;;7.68;6.28;;;19.60;90.10;;;;;;4975734;28;20030;-96
2021/07/15 05:32:37;;;;;;;5.43;4.00;;;19.70;90.20;;;;;;4991509;28;20028;-96
2021/07/15 05:40:14;;;;;;;10.73;6.30;;;19.70;90.20;;;;;;5370239;23;20054;-94
2021/07/15 05:42:40;;;;;;;13.68;8.95;;;19.70;90.20;;;;;;5009055;28;20034;-94
2021/07/15 05:45:07;;;;;;;11.43;8.13;;;19.60;90.10;;;;;;5020373;28;20018;-96
2021/07/15 05:47:33;;;;;;;11.70;8.13;;;19.60;90.20;;;;;;5174328;23;20026;-96
2021/07/15 05:49:58;;;;;;;12.55;8.15;;;19.60;90.20;;;;;;5003385;28;20031;-95
2021/07/15 05:55:01;;;;;;;13.02;8.65;;;19.60;90.40;;;;;;5153967;23;20108;-96
2021/07/15 05:57:27;;;;;;;12.75;8.27;;;19.60;90.20;;;;;;5012861;28;20041;-96
2021/07/15 05:59:53;;;;;;;9.52;5.68;;;19.60;90.20;;;;;;4988420;28;20023;-96
2021/07/15 06:02:19;;;;;;;13.50;8.20;;;19.60;90.20;;;;;;4984357;28;20550;-96
2021/07/15 06:04:46;;;;;;;13.15;8.27;;;19.60;90.20;;;;;;4983644;28;20050;-95
2021/07/15 06:07:12;;;;;;;15.55;9.52;;;19.60;90.30;;;;;;4980507;28;20039;-96
2021/07/15 06:09:49;;;;;;;11.60;6.53;;;19.60;90.40;;;;;;4977080;28;20049;-96
2021/07/15 06:12:15;;;;;;;12.88;9.00;;;19.50;90.30;;;;;;4977199;28;20034;-96
2021/07/15 06:14:41;;;;;;;13.38;8.13;;;19.60;90.30;;;;;;4973754;28;20367;-96
2021/07/15 06:17:06;;;;;;;11.05;7.13;;;19.50;90.30;;;;;;4979019;28;20031;-96
2021/07/15 06:19:32;;;;;;;13.65;9.93;;;19.60;90.40;;;;;;4967285;28;20015;-95
2021/07/15 06:21:57;;;;;;;15.73;8.88;;;19.60;90.30;;;;;;4972000;28;20034;-95
2021/07/15 06:24:23;;;;;;;10.82;8.00;;;19.50;90.30;;;;;;4980905;28;20077;-96
2021/07/15 06:26:51;;;;;;;9.98;7.22;;;19.50;90.30;;;;;;4986796;28;20023;-96
2021/07/15 06:29:17;;;;;;;11.43;7.03;;;19.50;90.30;;;;;;4983610;28;20031;-96
2021/07/15 06:31:43;;;;;;;9.10;6.65;;;19.60;90.30;;;;;;5067716;23;20053;-95
2021/07/15 06:34:18;;;;;;;8.55;5.10;;;19.60;90.30;;;;;;5003078;28;20076;-96
2021/07/15 06:36:45;;;;;;;9.18;6.60;;;19.70;90.30;;;;;;5014410;23;20082;-96
2021/07/15 06:44:29;;;;;;;8.60;5.30;;;19.70;90.10;;;;;;5137204;23;20076;-96
2021/07/15 06:46:58;;;;;;;8.18;4.88;;;19.80;90.10;;;;;;5017465;28;20030;-96
2021/07/15 06:57:11;;;;;;;4.85;3.80;;;19.80;90.00;;;;;;5263664;23;20054;-96
2021/07/15 06:59:36;;;;;;;6.60;3.63;;;19.80;90.00;;;;;;5038429;28;20022;-96
2021/07/15 07:02:02;;;;;;;5.28;3.85;;;19.80;90.00;;;;;;5007901;28;20106;-96
2021/07/15 07:04:28;;;;;;;3.97;3.58;;;19.80;89.90;;;;;;4995399;28;20037;-96
2021/07/15 07:06:53;;;;;;;4.22;3.58;;;19.80;89.90;;;;;;4994114;28;20037;-95
2021/07/15 07:09:19;;;;;;;5.97;4.40;;;19.90;89.90;;;;;;4995701;28;20493;-94
2021/07/15 07:11:45;;;;;;;5.57;3.70;;;19.80;89.80;;;;;;4993108;28;20038;-95
2021/07/15 07:14:10;;;;;;;3.60;3.00;;;19.80;89.80;;;;;;4995580;28;20129;-95
2021/07/15 07:16:36;;;;;;;4.22;3.55;;;19.80;89.90;;;;;;4995111;28;20022;-96
2021/07/15 07:19:03;;;;;;;4.72;3.92;;;19.80;89.70;;;;;;5001383;28;20038;-95
2021/07/15 07:21:32;;;;;;;5.30;4.05;;;19.80;89.70;;;;;;4995459;28;20113;-95
2021/07/15 07:23:59;;;;;;;7.15;4.57;;;19.80;89.80;;;;;;4992620;28;20129;-96
2021/07/15 07:26:32;;;;;;;6.50;4.63;;;19.70;89.70;;;;;;4993445;28;20022;-96
2021/07/15 07:28:57;;;;;;;6.65;4.47;;;19.70;89.80;;;;;;4995560;28;20038;-93
2021/07/15 07:31:26;;;;;;;8.07;5.40;;;19.70;89.90;;;;;;4994770;28;20041;-94
2021/07/15 07:33:59;;;;;;;8.63;5.60;;;19.60;89.80;;;;;;4994359;28;20069;-96
2021/07/15 07:36:24;;;;;;;8.95;5.53;;;19.70;90.00;;;;;;4993317;28;20077;-95
2021/07/15 07:38:50;;;;;;;6.97;4.55;;;19.60;89.90;;;;;;4998638;28;20065;-96
2021/07/15 07:41:16;;;;;;;9.85;6.07;;;19.60;90.00;;;;;;4998704;28;20032;-95
2021/07/15 07:43:41;;;;;;;10.30;6.88;;;19.60;90.00;;;;;;4996761;28;20023;-96
2021/07/15 07:46:07;;;;;;;9.93;6.35;;;19.60;90.00;;;;;;4993821;28;20027;-96
2021/07/15 07:48:32;;;;;;;9.30;4.72;;;19.60;90.00;;;;;;4977166;28;20038;-96
2021/07/15 07:50:58;;;;;;;11.77;7.13;;;19.60;90.00;;;;;;4989853;28;20027;-96
2021/07/15 07:53:26;;;;;;;6.97;5.07;;;19.60;90.10;;;;;;4993630;28;20022;-95
2021/07/15 07:56:01;;;;;;;11.00;6.30;;;19.60;90.10;;;;;;5636304;23;20021;-95
2021/07/15 08:06:14;;;;;;;7.90;4.68;;;19.70;90.00;;;;;;5867240;23;20058;-96
2021/07/15 08:32:06;;;;;;;4.97;3.70;;;19.80;89.60;;;;;;5962764;23;20055;-96
2021/07/15 08:34:31;;;;;;;4.90;4.03;;;19.80;89.60;;;;;;5387831;23;20097;-95
2021/07/15 08:44:44;;;;;;;10.30;5.45;;;19.60;89.70;;;;;;5773097;23;20076;-96
2021/07/15 08:47:13;;;;;;;9.10;5.50;;;19.60;89.80;;;;;;5020834;23;20046;-96
2021/07/15 08:49:40;;;;;;;8.25;5.53;;;19.60;89.80;;;;;;5142040;22;20072;-96
2021/07/15 08:52:06;;;;;;;11.77;5.80;;;19.50;89.80;;;;;;4994601;28;20022;-96
2021/07/15 08:56:57;;;;;;;11.27;5.97;;;19.50;89.90;;;;;;5014320;23;20049;-95
2021/07/15 08:59:25;;;;;;;10.27;5.32;;;19.50;89.90;;;;;;5000128;28;20145;-94
2021/07/15 09:01:52;;;;;;;11.40;5.57;;;19.50;89.90;;;;;;5008784;28;20045;-95
2021/07/15 09:04:20;;;;;;;11.32;5.78;;;19.50;89.90;;;;;;5013133;28;20022;-96
2021/07/15 09:06:50;;;;;;;14.02;6.57;;;19.50;89.90;;;;;;5018292;28;20030;-96
2021/07/15 09:09:16;;;;;;;10.90;5.20;;;19.40;89.90;;;;;;5216050;23;20046;-96
2021/07/15 09:11:42;;;;;;;11.60;5.35;;;19.40;90.00;;;;;;5445875;23;20269;-96
2021/07/15 09:14:21;;;;;;;10.23;5.70;;;19.40;90.30;;;;;;5002363;28;20053;-96
2021/07/15 09:16:56;;;;;;;11.32;5.75;;;19.40;90.00;;;;;;4996947;28;20027;-96
2021/07/15 09:19:24;;;;;;;10.00;5.22;;;19.40;90.00;;;;;;4994933;28;20425;-93
2021/07/15 09:21:50;;;;;;;12.32;6.22;;;19.40;90.00;;;;;;4990404;28;20026;-95
2021/07/15 09:24:32;;;;;;;8.73;4.70;;;19.40;90.00;;;;;;4989145;28;20101;-94
2021/07/15 09:27:09;;;;;;;10.43;5.70;;;19.40;90.00;;;;;;4991572;28;20039;-93
2021/07/15 09:29:35;;;;;;;12.02;6.28;;;19.40;90.00;;;;;;4991886;28;20018;-93
2021/07/15 09:32:01;;;;;;;9.65;5.70;;;19.40;89.90;;;;;;4989042;28;20062;-94
2021/07/15 09:34:29;;;;;;;7.50;4.30;;;19.50;89.90;;;;;;4987664;28;20022;-94
2021/07/15 09:36:56;;;;;;;10.40;6.18;;;19.50;89.90;;;;;;4978840;28;20054;-93
2021/07/15 09:39:22;;;;;;;7.82;5.63;;;19.40;89.90;;;;;;4986893;28;20078;-92
2021/07/15 09:42:06;;;;;;;7.15;5.05;;;19.40;89.90;;;;;;4991119;28;20019;-93
2021/07/15 09:44:43;;;;;;;8.32;5.07;;;19.50;89.90;;;;;;4987826;28;20034;-93
2021/07/15 09:47:33;;;;;;;7.85;4.72;;;19.50;89.90;;;;;;4982653;28;20039;-94
2021/07/15 09:50:21;;;;;;;9.88;5.38;;;19.50;89.80;;;;;;4987909;28;20026;-92
2021/07/15 09:52:47;;;;;;;8.18;5.63;;;19.50;89.70;;;;;;4991918;28;20027;-91
2021/07/15 09:55:21;;;;;;;9.85;5.05;;;19.60;89.70;;;;;;4985956;28;20527;-93
2021/07/15 09:58:00;;;;;;;8.32;4.85;;;19.60;89.60;;;;;;4987001;28;20023;-94
2021/07/15 10:00:41;;;;;;;7.78;5.05;;;19.60;89.60;;;;;;4987357;28;20011;-93
2021/07/15 10:03:09;;;;;;;11.05;6.22;;;19.60;89.50;;;;;;4986472;28;20026;-94
2021/07/15 10:05:36;;;;;;;7.55;4.78;;;19.60;89.40;;;;;;4991030;28;20023;-93
2021/07/15 10:08:10;;;;;;;8.80;5.53;;;19.60;89.50;;;;;;4983774;28;20027;-94
2021/07/15 10:10:38;;;;;;;7.60;4.60;;;19.60;89.40;;;;;;4990318;28;20026;-93
2021/07/15 10:13:18;;;;;;;6.43;5.03;;;19.60;89.40;;;;;;4991242;28;20121;-93
2021/07/15 10:15:45;;;;;;;6.57;4.30;;;19.60;89.30;;;;;;4991911;28;20026;-94
2021/07/15 10:18:12;;;;;;;7.35;5.10;;;19.60;89.30;;;;;;4995389;28;20023;-96
2021/07/15 10:20:38;;;;;;;7.97;4.30;;;19.70;89.40;;;;;;4988872;28;20038;-93
2021/07/15 10:23:03;;;;;;;7.35;4.70;;;19.70;89.30;;;;;;4989256;28;20069;-92
2021/07/15 10:25:30;;;;;;;6.35;4.50;;;19.70;89.30;;;;;;4994783;28;20509;-93
2021/07/15 10:27:55;;;;;;;5.00;3.80;;;19.70;89.30;;;;;;4987228;28;20046;-93
2021/07/15 10:30:24;;;;;;;5.22;3.78;;;19.80;90.00;;;;;;4990301;28;20069;-93
2021/07/15 10:32:50;;;;;;;6.20;3.47;;;19.80;89.20;;;;;;4990362;28;20101;-94
2021/07/15 10:35:16;;;;;;;6.65;4.53;;;19.80;89.20;;;;;;4992657;28;20077;-94
2021/07/15 11:07:04;;;;;;;5.75;3.90;;;19.70;88.80;;;;;;6100472;23;20146;-101
2021/07/15 11:09:38;;;;;;;4.40;3.42;;;19.70;88.80;;;;;;5498891;23;20034;-96
2021/07/15 11:25:42;;;;;;;4.93;3.42;;;19.70;88.70;;;;;;5194160;23;20091;-96
2021/07/15 11:28:23;;;;;;;4.80;3.45;;;19.80;88.60;;;;;;5224007;23;20041;-94
2021/07/15 11:36:07;;;;;;;8.20;4.40;;;19.80;88.60;;;;;;5345372;23;20054;-96
2021/07/15 11:38:39;;;;;;;5.88;3.95;;;19.80;88.50;;;;;;5019927;28;20087;-96
2021/07/15 11:43:57;;;;;;;5.72;4.18;;;19.80;88.40;;;;;;5911849;23;20234;-96
2021/07/15 11:49:44;;;;;;;6.57;4.10;;;19.80;88.30;;;;;;5696676;23;19932;-96
2021/07/15 11:51:56;;;;;;;6.28;4.72;;;19.80;88.50;;;;;;5019487;28;20061;-96
2021/07/15 12:02:39;;;;;;;6.32;3.97;;;19.90;88.30;;;;;;5706257;23;20058;-96
2021/07/15 12:10:28;;;;;;;7.85;4.93;;;20.00;88.10;;;;;;5613153;23;20054;-96
2021/07/15 12:12:58;;;;;;;7.13;4.90;;;20.00;88.10;;;;;;5003860;28;20030;-96
2021/07/15 12:33:49;;;;;;;7.40;6.40;;;20.00;87.80;;;;;;5285136;23;20053;-96
2021/07/15 12:44:09;;;;;;;7.72;5.07;;;20.00;87.80;;;;;;5900933;23;20061;-95
2021/07/15 12:46:40;;;;;;;9.02;5.32;;;20.00;87.80;;;;;;5010186;28;20038;-96
2021/07/15 12:49:12;;;;;;;7.78;5.03;;;20.10;88.00;;;;;;5006050;28;20100;-96
2021/07/15 12:59:25;;;;;;;7.22;5.03;;;20.00;87.70;;;;;;5383753;23;20058;-96
2021/07/15 13:01:51;;;;;;;5.60;4.50;;;20.00;87.70;;;;;;5080957;23;20065;-96
2021/07/15 13:06:54;;;;;;;5.10;3.92;;;20.00;88.30;;;;;;5300848;23;20054;-96
2021/07/15 13:09:31;;;;;;;8.93;5.88;;;20.00;87.60;;;;;;5021677;28;20117;-96
2021/07/15 13:14:56;;;;;;;7.38;5.22;;;20.00;87.70;;;;;;5008117;28;20096;-96
2021/07/15 13:17:44;;;;;;;7.97;5.78;;;19.90;87.70;;;;;;5007734;28;20034;-96
2021/07/15 13:20:16;;;;;;;6.70;4.22;;;19.90;87.70;;;;;;5007068;28;20033;-96
2021/07/15 13:22:47;;;;;;;6.93;5.20;;;19.90;87.70;;;;;;4994503;28;20072;-96
2021/07/15 13:25:20;;;;;;;8.30;6.10;;;19.90;87.60;;;;;;4995018;28;20037;-96
2021/07/15 13:27:47;;;;;;;10.25;6.72;;;19.90;87.70;;;;;;5010830;28;20056;-95
2021/07/15 13:30:16;;;;;;;10.85;6.95;;;19.80;87.60;;;;;;5007159;28;20019;-96
2021/07/15 13:32:42;;;;;;;9.63;5.43;;;19.80;87.60;;;;;;5001957;28;20038;-96
2021/07/15 13:35:16;;;;;;;7.63;5.90;;;19.80;87.60;;;;;;5004102;28;20034;-96
2021/07/15 13:37:43;;;;;;;7.72;5.95;;;19.80;87.70;;;;;;5001667;28;20063;-96
2021/07/15 13:40:27;;;;;;;9.30;6.60;;;19.90;87.70;;;;;;5015475;28;20114;-96
2021/07/15 13:43:10;;;;;;;7.75;5.97;;;19.80;87.70;;;;;;4999932;28;20018;-94
2021/07/15 13:45:42;;;;;;;6.47;4.75;;;19.90;87.80;;;;;;4997499;28;20053;-95
2021/07/15 13:48:25;;;;;;;7.38;5.82;;;19.90;87.70;;;;;;5006129;28;20038;-95
2021/07/15 13:51:00;;;;;;;6.80;4.97;;;19.90;87.70;;;;;;5004745;28;20473;-95
2021/07/15 13:53:27;;;;;;;10.82;5.78;;;19.90;87.70;;;;;;5013613;28;20129;-96
2021/07/15 13:55:54;;;;;;;9.63;5.95;;;19.90;87.50;;;;;;5004282;28;20531;-96
2021/07/15 13:58:21;;;;;;;8.75;5.65;;;19.90;87.40;;;;;;5015791;28;20026;-96
2021/07/15 14:01:01;;;;;;;8.38;5.93;;;20.00;87.30;;;;;;5014032;28;20034;-94
2021/07/15 14:06:14;;;;;;;11.43;6.97;;;19.90;87.20;;;;;;5466718;23;20453;-96
2021/07/15 14:08:40;;;;;;;10.38;6.40;;;19.90;87.20;;;;;;4992653;28;20283;-96
2021/07/15 14:11:12;;;;;;;10.23;5.75;;;19.80;87.20;;;;;;4993966;28;20061;-94
2021/07/15 14:13:39;;;;;;;11.48;6.07;;;19.80;87.30;;;;;;4969071;28;20031;-95
2021/07/15 14:16:05;;;;;;;12.65;6.97;;;19.80;87.30;;;;;;4994562;28;20093;-96
2021/07/15 14:18:31;;;;;;;11.65;6.60;;;19.80;87.40;;;;;;4989325;28;20038;-96
2021/07/15 14:38:57;;;;;;;9.20;6.00;;;19.70;87.40;;;;;;5043507;23;20500;-95
2021/07/15 14:43:58;;;;;;;9.60;6.20;;;19.70;87.40;;;;;;5145651;23;20062;-96
2021/07/15 14:46:24;;;;;;;11.65;5.88;;;19.70;87.40;;;;;;5002391;28;20085;-96
2021/07/15 14:51:25;;;;;;;10.68;6.50;;;19.60;87.40;;;;;;5602362;23;20042;-96
2021/07/15 15:14:26;;;;;;;7.63;5.30;;;19.60;88.10;;;;;;5060605;23;20049;-96
2021/07/15 15:16:51;;;;;;;8.80;5.13;;;19.60;87.50;;;;;;5000376;28;20023;-95
2021/07/15 15:19:26;;;;;;;6.85;5.25;;;19.60;87.50;;;;;;5004272;28;20034;-96
2021/07/15 15:21:52;;;;;;;6.05;4.30;;;19.60;87.50;;;;;;4999275;28;20019;-96
2021/07/15 15:24:17;;;;;;;7.15;4.53;;;19.60;87.50;;;;;;5000770;28;20064;-96
2021/07/15 15:26:43;;;;;;;6.80;4.68;;;19.60;87.50;;;;;;4996885;28;20022;-96
2021/07/15 15:44:53;;;;;;;6.07;4.38;;;19.60;87.30;;;;;;5949328;23;21075;-96
2021/07/15 16:02:44;;;;;;;5.50;4.03;;;19.50;87.10;;;;;;5502262;23;20046;-96
2021/07/15 16:05:14;;;;;;;6.60;4.25;;;19.40;87.10;;;;;;4990275;28;20550;-96
2021/07/15 16:07:43;;;;;;;5.07;4.38;;;19.40;87.20;;;;;;4987701;28;20035;-96
2021/07/15 16:10:19;;;;;;;10.40;4.40;;;19.30;87.20;;;;;;5116464;23;20022;-96
2021/07/15 16:17:48;;;;;;;5.50;4.40;;;19.30;87.40;;;;;;4995270;28;20042;-96
2021/07/15 16:20:26;;;;;;;5.22;3.78;;;19.30;87.40;;;;;;4998066;28;20041;-96
2021/07/15 16:28:04;;;;;;;5.75;4.10;;;19.20;87.40;;;;;;5994684;23;20024;-96
2021/07/15 16:30:32;;;;;;;5.97;4.32;;;19.20;87.50;;;;;;5013090;28;20022;-96
2021/07/15 16:32:59;;;;;;;7.60;5.43;;;19.20;87.60;;;;;;5007355;28;20026;-96
2021/07/15 16:35:25;;;;;;;8.38;5.40;;;19.20;87.60;;;;;;5001798;28;20046;-96
2021/07/15 16:37:51;;;;;;;9.38;6.30;;;19.20;87.70;;;;;;5025141;28;20024;-95
2021/07/15 16:40:18;;;;;;;6.78;5.53;;;19.20;87.70;;;;;;5012008;28;20026;-96
2021/07/15 16:58:16;;;;;;;10.35;6.10;;;19.30;88.10;;;;;;5646208;23;20054;-96
2021/07/15 17:20:10;;;;;;;9.57;6.07;;;19.40;87.40;;;;;;5261010;23;19921;-96
2021/07/15 17:32:57;;;;;;;11.50;5.30;;;19.60;87.20;;;;;;5252104;23;20058;-96
2021/07/15 17:35:23;;;;;;;9.02;5.10;;;19.60;87.20;;;;;;5016309;28;20014;-96
2021/07/15 17:37:49;;;;;;;11.45;6.20;;;19.60;87.20;;;;;;5016425;28;20033;-96
2021/07/15 17:47:42;;;;;;;7.95;5.50;;;19.70;86.90;;;;;;5013507;28;20481;-94
2021/07/15 17:50:08;;;;;;;11.13;5.88;;;19.70;86.80;;;;;;4998652;28;20022;-96
2021/07/15 17:52:34;;;;;;;9.90;5.63;;;19.70;86.80;;;;;;5050283;23;20065;-96
2021/07/15 18:00:16;;;;;;;6.75;4.45;;;19.70;86.70;;;;;;5802801;23;20050;-96
2021/07/15 18:07:56;;;;;;;10.68;4.57;;;19.80;86.60;;;;;;5594170;23;20050;-96
2021/07/15 18:10:23;;;;;;;7.18;4.10;;;19.80;86.50;;;;;;5036110;28;20041;-96
2021/07/15 18:46:21;;;;;;;10.98;4.93;;;19.60;86.20;;;;;;4982661;28;20051;-96
2021/07/15 18:48:46;;;;;;;11.63;4.68;;;19.50;86.20;;;;;;4978483;28;20038;-96
2021/07/15 19:01:43;;;;;;;8.27;3.88;;;19.40;86.10;;;;;;5470562;23;20037;-96
2021/07/15 19:04:09;;;;;;;7.18;4.18;;;19.40;86.20;;;;;;5158918;23;20047;-96
2021/07/15 19:06:39;;;;;;;8.25;4.38;;;19.40;86.30;;;;;;5021740;23;20042;-96
2021/07/15 19:09:07;;;;;;;7.65;3.72;;;19.40;86.50;;;;;;5004533;28;20027;-95
2021/07/15 19:50:05;;;;;;;8.13;4.17;;;19.00;86.70;;;;;;5198457;23;20439;-96
2021/07/15 19:55:07;;;;;;;6.93;4.07;;;18.90;86.70;;;;;;5015707;23;20055;-96
2021/07/15 20:00:03;;;;;;;9.50;4.63;;;18.90;86.70;;;;;;5012148;28;20458;-95
2021/07/15 20:02:29;;;;;;;7.85;3.75;;;18.90;86.70;;;;;;5008695;28;20042;-96
2021/07/15 20:04:54;;;;;;;6.60;3.47;;;18.90;86.70;;;;;;4987642;28;20041;-96
2021/07/15 20:07:20;;;;;;;7.28;4.15;;;18.90;86.70;;;;;;4984078;28;20054;-96
2021/07/15 20:09:46;;;;;;;8.50;3.70;;;18.90;87.20;;;;;;4981441;28;20026;-94
2021/07/15 20:12:11;;;;;;;10.30;4.70;;;18.90;86.70;;;;;;4975349;28;20039;-95
2021/07/15 20:14:38;;;;;;;12.20;5.22;;;18.80;86.50;;;;;;4986334;28;20149;-96
2021/07/15 20:17:03;;;;;;;9.15;4.60;;;18.80;86.50;;;;;;4987729;28;20085;-96
2021/07/15 20:19:29;;;;;;;6.38;3.58;;;18.80;86.50;;;;;;4988877;28;20469;-95
2021/07/15 20:24:30;;;;;;;10.23;3.90;;;18.80;86.40;;;;;;5943475;23;20246;-96
2021/07/15 20:26:57;;;;;;;8.85;3.92;;;18.80;86.50;;;;;;5122357;23;20049;-95
2021/07/15 20:29:24;;;;;;;6.18;3.50;;;18.80;86.40;;;;;;5011404;28;20049;-95
2021/07/15 20:31:50;;;;;;;7.80;3.88;;;18.80;87.00;;;;;;5011237;28;20555;-95
2021/07/15 20:34:16;;;;;;;10.52;4.53;;;18.80;86.30;;;;;;5006314;28;20042;-96
2021/07/15 20:36:41;;;;;;;7.25;4.00;;;18.70;86.20;;;;;;5015746;28;21714;-96
2021/07/15 20:39:07;;;;;;;8.00;4.38;;;18.80;86.20;;;;;;5007413;28;20084;-96
2021/07/15 20:41:32;;;;;;;6.50;3.75;;;18.80;86.10;;;;;;5015568;28;20022;-95
2021/07/15 20:43:58;;;;;;;8.02;3.70;;;18.80;86.20;;;;;;5014239;28;20030;-96
2021/07/15 20:46:24;;;;;;;7.82;3.40;;;18.80;86.00;;;;;;4999840;28;20034;-96
2021/07/15 20:48:50;;;;;;;5.18;3.65;;;18.70;85.90;;;;;;4992322;28;20025;-96
2021/07/15 20:51:21;;;;;;;7.82;3.83;;;18.70;85.80;;;;;;5021721;23;20081;-96
2021/07/15 20:53:48;;;;;;;6.32;3.40;;;18.70;85.80;;;;;;5198170;23;20028;-95
2021/07/15 20:56:14;;;;;;;8.70;4.30;;;18.70;85.80;;;;;;4995663;28;20500;-96
2021/07/15 20:58:45;;;;;;;7.35;3.78;;;18.70;85.70;;;;;;4994612;28;20026;-92
2021/07/15 21:01:11;;;;;;;9.27;4.60;;;18.60;85.70;;;;;;4992975;28;20033;-90
2021/07/15 21:03:37;;;;;;;9.45;4.43;;;18.60;85.70;;;;;;4992331;28;20026;-92
2021/07/15 21:06:06;;;;;;;8.40;3.50;;;18.60;85.70;;;;;;4989244;28;20533;-95
2021/07/15 21:08:32;;;;;;;7.47;3.97;;;18.70;85.80;;;;;;4991102;28;20038;-91
2021/07/15 21:11:08;;;;;;;7.50;3.83;;;18.60;85.70;;;;;;4991630;28;20097;-90
2021/07/15 21:13:35;;;;;;;7.18;3.78;;;18.60;85.60;;;;;;4990151;28;20073;-91
2021/07/15 21:16:00;;;;;;;7.35;3.65;;;18.70;85.70;;;;;;4990032;28;20484;-90
2021/07/15 21:18:26;;;;;;;6.82;3.90;;;18.60;85.60;;;;;;4992143;28;20029;-91
2021/07/15 21:20:52;;;;;;;7.00;3.65;;;18.60;85.60;;;;;;4992385;28;20026;-92
2021/07/15 21:23:18;;;;;;;7.57;3.83;;;18.60;85.60;;;;;;4991756;28;20049;-91
2021/07/15 21:25:44;;;;;;;6.43;3.88;;;18.60;85.60;;;;;;4991491;28;20030;-90
2021/07/15 21:28:11;;;;;;;8.40;4.50;;;18.60;85.50;;;;;;4990457;28;20043;-91
2021/07/15 21:30:41;;;;;;;7.82;4.20;;;18.60;85.50;;;;;;4990805;28;20022;-91
2021/07/15 21:33:08;;;;;;;6.65;3.70;;;18.50;85.50;;;;;;4990080;28;20054;-92
2021/07/15 21:35:33;;;;;;;8.48;4.05;;;18.50;85.50;;;;;;4984136;28;20029;-91
2021/07/15 21:37:59;;;;;;;6.78;3.60;;;18.50;85.40;;;;;;4980900;28;20027;-90
2021/07/15 21:40:25;;;;;;;11.27;4.03;;;18.50;85.40;;;;;;4980318;28;20026;-90
2021/07/15 21:42:53;;;;;;;7.80;3.67;;;18.50;85.40;;;;;;4978460;28;20032;-89
2021/07/15 21:45:20;;;;;;;7.57;4.30;;;18.50;85.30;;;;;;4984520;28;20035;-89
2021/07/15 21:47:50;;;;;;;8.00;3.58;;;18.50;85.20;;;;;;4977667;28;20092;-91
2021/07/15 21:50:17;;;;;;;5.82;3.22;;;18.50;85.20;;;;;;4987407;28;20029;-89
2021/07/15 21:52:46;;;;;;;5.68;3.33;;;18.40;85.20;;;;;;4988501;28;20054;-89
2021/07/15 21:55:12;;;;;;;7.85;4.32;;;18.50;85.30;;;;;;4983163;28;20027;-89
2021/07/15 21:57:37;;;;;;;6.97;3.78;;;18.50;85.20;;;;;;4985442;28;20027;-90
2021/07/15 22:00:09;;;;;;;6.72;3.95;;;18.40;85.10;;;;;;4992433;28;20053;-88
2021/07/15 22:02:34;;;;;;;8.73;3.83;;;18.40;85.20;;;;;;4987482;28;20625;-90
2021/07/15 22:05:00;;;;;;;8.65;4.10;;;18.40;85.40;;;;;;4992418;28;20037;-90
2021/07/15 22:07:25;;;;;;;7.90;3.85;;;18.40;85.40;;;;;;4992721;28;20035;-90
2021/07/15 22:09:51;;;;;;;6.18;3.35;;;18.30;86.00;;;;;;4994917;28;20492;-89
2021/07/15 22:12:17;;;;;;;9.57;4.40;;;18.30;85.50;;;;;;4993598;28;20035;-89
2021/07/15 22:14:42;;;;;;;7.22;3.78;;;18.30;85.50;;;;;;4994349;28;20139;-90
2021/07/15 22:17:08;;;;;;;7.50;4.22;;;18.30;85.50;;;;;;4993891;28;20030;-89
2021/07/15 22:19:33;;;;;;;7.65;4.30;;;18.20;85.40;;;;;;4993418;28;20026;-88
2021/07/15 22:22:03;;;;;;;7.57;3.95;;;18.20;85.40;;;;;;4992372;28;20052;-88
2021/07/15 22:24:30;;;;;;;6.90;3.63;;;18.20;85.60;;;;;;4983141;28;20022;-89
2021/07/15 22:26:56;;;;;;;8.07;4.20;;;18.20;85.60;;;;;;4995041;28;20129;-88
2021/07/15 22:29:22;;;;;;;5.97;3.47;;;18.20;85.60;;;;;;4994967;28;20481;-88
2021/07/15 22:31:50;;;;;;;7.28;4.03;;;18.10;85.50;;;;;;4994636;28;20045;-88
2021/07/15 22:34:15;;;;;;;7.03;3.88;;;18.10;85.50;;;;;;4994594;28;20019;-88
2021/07/15 22:36:41;;;;;;;5.82;3.63;;;18.10;85.50;;;;;;4994991;28;20030;-89
2021/07/15 22:39:07;;;;;;;7.28;4.15;;;18.10;85.40;;;;;;4994720;28;20057;-89
2021/07/15 22:41:33;;;;;;;5.85;3.72;;;18.00;86.00;;;;;;4994627;28;20029;-90
2021/07/15 22:43:59;;;;;;;5.63;3.30;;;18.00;85.40;;;;;;4994791;28;20095;-90
2021/07/15 22:46:26;;;;;;;9.07;4.10;;;18.00;85.30;;;;;;4994769;28;20499;-89
2021/07/15 22:48:53;;;;;;;5.75;3.50;;;18.00;85.30;;;;;;4994381;28;20385;-88
2021/07/15 22:51:19;;;;;;;7.40;3.70;;;18.00;85.30;;;;;;4994347;28;20026;-90
2021/07/15 22:53:44;;;;;;;6.45;3.70;;;18.00;85.30;;;;;;4993063;28;20026;-88
2021/07/15 22:56:10;;;;;;;6.80;3.70;;;18.00;85.30;;;;;;4995016;28;20061;-89
2021/07/15 22:58:35;;;;;;;6.60;3.47;;;18.00;85.30;;;;;;4995164;28;20462;-87
2021/07/15 23:01:02;;;;;;;5.75;3.17;;;18.00;85.30;;;;;;4994792;28;20038;-89
2021/07/15 23:03:28;;;;;;;6.60;3.50;;;18.00;85.30;;;;;;4993117;28;20023;-88
2021/07/15 23:05:53;;;;;;;6.40;3.42;;;18.00;85.30;;;;;;4992989;28;20470;-87
2021/07/15 23:08:19;;;;;;;7.10;3.30;;;18.00;85.90;;;;;;4994050;28;20483;-89
2021/07/15 23:10:45;;;;;;;9.63;3.65;;;18.00;85.30;;;;;;4993456;28;20054;-87
2021/07/15 23:13:13;;;;;;;6.53;4.03;;;18.00;85.20;;;;;;4992521;28;20420;-86